Time;durP1;ratioP1;P1;durP2;ratioP2;P2;SDS_P1;SDS_P2;PMS_P1;PMS_P2;Temp;Humidity;BMP_temperature;BMP_pressure;BME280_temperature;BME280_humidity;BME280_pressure;Samples;Min_cycle;Max_cycle;Signal;HPM_P1;HPM_P2
2021/10/15 00:04:11;;;;;;;52.17;48.53;;;;;;;14.35;100.00;101923.05;1941427;74;33682;-71
2021/10/15 00:09:35;;;;;;;53.53;49.63;;;;;;;14.31;100.00;101913.00;1941126;74;33004;-72
2021/10/15 00:15:02;;;;;;;56.67;52.87;;;;;;;14.31;100.00;101922.78;1941172;74;32996;-70
2021/10/15 00:20:26;;;;;;;55.43;51.53;;;;;;;14.26;100.00;101913.57;1941346;74;33024;-70
2021/10/15 00:25:51;;;;;;;57.17;53.10;;;;;;;14.29;100.00;101927.81;1941357;74;32987;-70
2021/10/15 00:31:16;;;;;;;56.40;52.47;;;;;;;14.33;100.00;101918.33;1941342;74;32964;-72
2021/10/15 00:36:41;;;;;;;55.63;51.77;;;;;;;14.27;100.00;101918.89;1941066;74;32979;-72
2021/10/15 00:42:06;;;;;;;53.50;49.73;;;;;;;14.35;100.00;101921.13;1941404;74;33020;-72
2021/10/15 00:47:34;;;;;;;53.67;49.90;;;;;;;14.30;100.00;101914.12;1941391;74;33466;-72
2021/10/15 00:52:58;;;;;;;55.33;51.53;;;;;;;14.34;100.00;101911.03;1941330;74;33101;-72
2021/10/15 00:58:23;;;;;;;56.70;52.70;;;;;;;14.36;100.00;101918.62;1941118;74;32971;-70
2021/10/15 01:03:48;;;;;;;53.40;49.73;;;;;;;14.44;100.00;101906.00;1941100;74;33098;-70
2021/10/15 01:09:12;;;;;;;50.67;47.00;;;;;;;14.43;100.00;101888.95;1941329;74;33475;-70
2021/10/15 01:14:37;;;;;;;56.13;52.13;;;;;;;14.53;100.00;101895.34;1941127;74;32981;-72
2021/10/15 01:20:03;;;;;;;52.73;49.13;;;;;;;14.54;100.00;101899.83;1941095;74;32974;-72
2021/10/15 01:25:31;;;;;;;55.30;51.33;;;;;;;14.58;100.00;101898.69;1941286;74;33141;-70
2021/10/15 01:30:56;;;;;;;54.63;50.97;;;;;;;14.61;100.00;101901.45;1941295;74;33491;-74
2021/10/15 01:36:21;;;;;;;54.13;50.10;;;;;;;14.66;100.00;101889.69;1941341;74;33474;-73
2021/10/15 01:41:45;;;;;;;54.27;50.40;;;;;;;14.65;100.00;101888.56;1941046;74;32981;-70
2021/10/15 01:47:10;;;;;;;53.40;49.50;;;;;;;14.66;100.00;101882.70;1941051;74;32970;-72
2021/10/15 01:52:34;;;;;;;53.33;49.53;;;;;;;14.66;100.00;101867.31;1941061;74;32983;-72
2021/10/15 01:57:59;;;;;;;56.73;52.90;;;;;;;14.65;100.00;101865.64;1941237;74;33441;-72
2021/10/15 02:03:23;;;;;;;54.83;51.17;;;;;;;14.70;100.00;101856.39;1941287;74;33556;-72
2021/10/15 02:08:47;;;;;;;53.17;49.37;;;;;;;14.71;100.00;101845.48;1940993;74;32982;-72
2021/10/15 02:14:12;;;;;;;51.03;47.30;;;;;;;14.73;100.00;101841.81;1941296;74;33490;-70
2021/10/15 02:19:37;;;;;;;51.43;47.87;;;;;;;14.71;100.00;101846.87;1941256;74;33542;-72
2021/10/15 02:25:02;;;;;;;53.87;49.97;;;;;;;14.72;100.00;101840.98;1941023;74;33379;-73
2021/10/15 02:30:28;;;;;;;54.20;50.40;;;;;;;14.75;100.00;101839.58;1941078;74;33050;-72
2021/10/15 02:35:53;;;;;;;50.30;46.60;;;;;;;14.73;100.00;101820.84;1941077;74;32971;-70
2021/10/15 02:41:17;;;;;;;51.77;47.97;;;;;;;14.76;100.00;101821.69;1941318;74;33610;-73
2021/10/15 02:46:44;;;;;;;51.90;48.40;;;;;;;14.75;100.00;101819.45;1941267;74;33454;-70
2021/10/15 02:52:08;;;;;;;50.70;47.17;;;;;;;14.77;100.00;101823.33;1941065;74;33023;-70
2021/10/15 02:57:32;;;;;;;50.70;47.30;;;;;;;14.74;100.00;101816.36;1941267;74;32991;-71
2021/10/15 03:02:57;;;;;;;53.23;49.67;;;;;;;14.78;100.00;101802.08;1941111;74;33108;-73
2021/10/15 03:08:22;;;;;;;50.60;47.17;;;;;;;14.76;100.00;101806.30;1941308;74;33045;-70
2021/10/15 03:13:46;;;;;;;51.37;47.77;;;;;;;14.79;100.00;101805.15;1941004;74;33106;-70
2021/10/15 03:19:11;;;;;;;52.03;48.37;;;;;;;14.77;100.00;101794.80;1941192;74;33100;-72
2021/10/15 03:24:35;;;;;;;51.33;47.70;;;;;;;14.73;100.00;101795.67;1941113;74;33097;-72
2021/10/15 03:30:00;;;;;;;52.03;48.37;;;;;;;14.65;100.00;101798.52;1941085;74;33063;-71
2021/10/15 03:35:25;;;;;;;52.03;48.63;;;;;;;14.61;100.00;101792.40;1941037;74;32980;-73
2021/10/15 03:40:50;;;;;;;51.60;48.03;;;;;;;14.53;100.00;101791.89;1941007;74;32980;-72
2021/10/15 03:46:14;;;;;;;51.60;48.00;;;;;;;14.48;100.00;101796.11;1941063;74;33030;-70
2021/10/15 03:51:38;;;;;;;52.80;49.40;;;;;;;14.45;100.00;101805.64;1941282;74;33490;-71
2021/10/15 03:57:03;;;;;;;54.00;50.20;;;;;;;14.48;100.00;101815.68;1941087;74;33059;-70
2021/10/15 04:02:27;;;;;;;51.20;47.37;;;;;;;14.56;100.00;101812.83;1870462;73;40600;-70
2021/10/15 04:07:52;;;;;;;50.20;46.40;;;;;;;14.58;100.00;101819.83;1941046;74;33070;-72
2021/10/15 04:13:16;;;;;;;50.07;46.57;;;;;;;14.61;100.00;101814.20;1941168;74;33523;-72
2021/10/15 04:18:40;;;;;;;50.53;47.23;;;;;;;14.62;100.00;101813.66;1941331;74;33040;-70
2021/10/15 04:24:05;;;;;;;51.83;48.33;;;;;;;14.65;100.00;101816.70;1941092;74;32993;-73
2021/10/15 04:29:30;;;;;;;52.70;48.90;;;;;;;14.66;100.00;101811.95;1941086;74;33092;-72
2021/10/15 04:34:55;;;;;;;51.47;48.07;;;;;;;14.67;100.00;101806.63;1941285;74;33703;-71
2021/10/15 04:40:19;;;;;;;52.30;48.73;;;;;;;14.65;100.00;101807.47;1941281;74;33475;-72
2021/10/15 04:45:43;;;;;;;54.53;50.93;;;;;;;14.63;100.00;101815.33;1941038;74;32993;-72
2021/10/15 04:51:08;;;;;;;53.13;49.63;;;;;;;14.68;100.00;101820.86;1941069;74;32983;-72
2021/10/15 04:56:33;;;;;;;52.57;49.13;;;;;;;14.64;100.00;101817.81;1941058;74;32970;-72
2021/10/15 05:01:58;;;;;;;52.53;49.00;;;;;;;14.68;100.00;101818.07;1941101;74;33069;-70
2021/10/15 05:07:24;;;;;;;53.47;49.90;;;;;;;14.66;100.00;101821.73;1941133;74;32978;-70
2021/10/15 05:12:52;;;;;;;54.67;51.03;;;;;;;14.64;100.00;101824.81;1941067;74;33127;-72
2021/10/15 05:18:18;;;;;;;53.90;50.20;;;;;;;14.67;100.00;101822.86;1941066;74;32965;-74
2021/10/15 05:23:44;;;;;;;52.27;48.37;;;;;;;14.68;100.00;101823.66;1907812;75;33065;-72
2021/10/15 05:29:08;;;;;;;52.03;48.43;;;;;;;14.66;100.00;101831.52;1941342;74;33460;-72
2021/10/15 05:34:33;;;;;;;54.27;50.57;;;;;;;14.61;100.00;101837.14;1941078;74;33118;-72
2021/10/15 05:39:57;;;;;;;54.27;50.53;;;;;;;14.59;100.00;101832.66;1941356;74;33542;-72
2021/10/15 05:45:22;;;;;;;52.83;49.07;;;;;;;14.64;100.00;101830.41;1941050;74;33056;-72
2021/10/15 05:50:47;;;;;;;53.30;49.57;;;;;;;14.63;100.00;101839.09;1941289;74;33663;-72
2021/10/15 06:02:05;;;;;;;54.20;50.40;;;;;;;14.55;100.00;101844.71;1941122;74;32979;-73
2021/10/15 06:19:16;;;;;;;55.87;51.90;;;;;;;14.54;100.00;101855.09;1941423;74;33524;-70
2021/10/15 06:24:40;;;;;;;56.70;52.63;;;;;;;14.35;100.00;101855.44;1941068;74;33019;-70
2021/10/15 06:30:06;;;;;;;59.57;55.57;;;;;;;14.35;100.00;101870.81;1941111;74;32971;-73
2021/10/15 06:35:31;;;;;;;57.80;53.80;;;;;;;14.30;100.00;101875.55;1941081;74;33461;-73
2021/10/15 06:40:56;;;;;;;59.10;54.73;;;;;;;14.29;100.00;101886.48;1941256;74;32971;-71
2021/10/15 06:46:21;;;;;;;54.70;50.70;;;;;;;14.38;100.00;101885.61;1941330;74;33546;-72
2021/10/15 06:51:46;;;;;;;57.67;53.73;;;;;;;14.39;100.00;101893.44;1941262;74;33532;-74
2021/10/15 06:57:11;;;;;;;54.50;50.77;;;;;;;14.40;100.00;101907.14;1941101;74;33012;-72
2021/10/15 07:02:36;;;;;;;57.17;53.17;;;;;;;14.43;100.00;101906.56;1941143;74;33044;-74
2021/10/15 07:08:02;;;;;;;58.33;54.23;;;;;;;14.49;100.00;101918.57;1941099;74;33073;-73
2021/10/15 07:13:26;;;;;;;60.07;55.87;;;;;;;14.49;100.00;101915.22;1941408;74;33605;-71
2021/10/15 07:18:51;;;;;;;58.77;54.77;;;;;;;14.52;100.00;101920.23;1941091;74;32955;-74
2021/10/15 07:24:16;;;;;;;57.73;53.67;;;;;;;14.47;100.00;101929.19;1941018;74;33068;-70
2021/10/15 07:29:41;;;;;;;56.77;52.37;;;;;;;14.49;100.00;101931.98;1941077;74;32980;-71
2021/10/15 07:35:08;;;;;;;57.30;52.80;;;;;;;14.48;100.00;101941.49;1941303;74;33603;-75
2021/10/15 07:40:32;;;;;;;58.63;54.23;;;;;;;14.53;100.00;101946.23;1941109;74;32945;-72
2021/10/15 07:46:03;;;;;;;58.73;54.53;;;;;;;14.56;100.00;101957.67;1941203;74;33056;-75
2021/10/15 07:51:29;;;;;;;58.17;54.07;;;;;;;14.59;100.00;101963.25;1941192;74;33060;-75
2021/10/15 07:56:53;;;;;;;55.97;51.87;;;;;;;14.48;100.00;101967.21;1941080;74;33072;-74
2021/10/15 08:02:22;;;;;;;54.00;49.77;;;;;;;14.51;100.00;101982.02;1941413;74;33495;-74
2021/10/15 08:07:46;;;;;;;54.60;50.30;;;;;;;14.51;100.00;101991.24;1941360;74;33084;-69
2021/10/15 08:13:13;;;;;;;54.00;50.13;;;;;;;14.55;100.00;102011.08;1941190;74;32986;-70
2021/10/15 08:18:40;;;;;;;53.50;49.80;;;;;;;14.53;100.00;102022.56;1941243;74;32968;-70
2021/10/15 08:24:09;;;;;;;50.33;46.77;;;;;;;14.47;100.00;102028.44;1941063;74;33006;-72
2021/10/15 08:29:38;;;;;;;45.53;42.43;;;;;;;14.44;100.00;102034.05;1941035;74;33057;-68
2021/10/15 08:35:09;;;;;;;46.40;43.40;;;;;;;14.34;100.00;102042.41;1941264;74;33057;-71
2021/10/15 08:40:33;;;;;;;45.23;42.43;;;;;;;14.33;100.00;102046.34;1941362;74;33518;-69
2021/10/15 08:45:57;;;;;;;42.50;40.20;;;;;;;14.29;100.00;102052.77;1941305;74;32989;-70
2021/10/15 08:51:23;;;;;;;42.90;40.20;;;;;;;14.19;100.00;102051.38;1941183;74;33087;-71
2021/10/15 08:56:50;;;;;;;43.83;41.23;;;;;;;14.16;100.00;102063.13;1941154;74;33100;-69
2021/10/15 09:02:16;;;;;;;41.20;38.70;;;;;;;14.16;100.00;102072.34;1941112;74;32999;-69
2021/10/15 09:07:56;;;;;;;43.30;40.57;;;;;;;14.15;100.00;102083.23;1941149;74;33074;-69
2021/10/15 09:13:23;;;;;;;44.33;41.73;;;;;;;14.19;100.00;102089.10;1941098;74;33049;-69
2021/10/15 09:18:49;;;;;;;43.83;41.17;;;;;;;14.11;100.00;102090.50;1941274;74;33664;-71
2021/10/15 09:24:12;;;;;;;42.20;39.70;;;;;;;13.93;100.00;102106.41;1941108;74;32984;-70
2021/10/15 09:29:43;;;;;;;42.90;40.40;;;;;;;13.88;100.00;102112.81;1941268;74;33878;-70
2021/10/15 09:35:12;;;;;;;43.53;40.83;;;;;;;13.92;100.00;102115.89;1941105;74;33132;-70
2021/10/15 09:40:42;;;;;;;40.40;38.00;;;;;;;13.76;100.00;102120.62;1941045;74;32991;-70
2021/10/15 09:46:11;;;;;;;42.03;39.63;;;;;;;13.64;100.00;102127.02;1941115;74;32969;-70
2021/10/15 09:51:50;;;;;;;39.10;36.80;;;;;;;13.80;100.00;102125.93;1941226;74;33083;-71
2021/10/15 09:57:17;;;;;;;38.00;35.50;;;;;;;13.80;100.00;102123.14;1941199;74;32993;-70
2021/10/15 10:02:42;;;;;;;41.07;38.50;;;;;;;13.80;100.00;102130.67;1941070;74;32997;-69
2021/10/15 10:08:12;;;;;;;41.03;38.33;;;;;;;13.99;100.00;102134.64;1941232;74;33471;-69
2021/10/15 10:13:39;;;;;;;41.03;38.43;;;;;;;13.92;100.00;102137.69;1941343;74;33835;-69
2021/10/15 10:19:05;;;;;;;44.57;41.67;;;;;;;13.92;100.00;102141.87;1941262;74;33076;-69
2021/10/15 10:24:33;;;;;;;39.83;37.43;;;;;;;14.06;100.00;102142.19;1941355;74;33485;-69
2021/10/15 10:29:59;;;;;;;42.43;39.83;;;;;;;14.15;100.00;102148.91;1941163;74;33060;-69
2021/10/15 10:35:27;;;;;;;40.20;37.60;;;;;;;14.04;100.00;102152.23;1941330;74;33612;-69
2021/10/15 10:41:28;;;;;;;42.00;39.30;;;;;;;14.22;100.00;102154.21;1941126;74;32983;-69
2021/10/15 10:47:15;;;;;;;37.67;35.17;;;;;;;14.26;100.00;102147.79;1941099;74;33014;-68
2021/10/15 10:50:05;;;;;;;38.40;35.90;;;;;;;14.37;100.00;102157.06;1905167;75;26330;-72
2021/10/15 10:55:41;;;;;;;35.13;32.90;;;;;;;14.57;100.00;102145.88;1941334;74;33550;-71
2021/10/15 11:01:28;;;;;;;35.80;33.33;;;;;;;14.81;100.00;102142.76;1941142;74;33011;-73
2021/10/15 11:06:57;;;;;;;33.30;30.83;;;;;;;15.02;100.00;102149.15;1941155;74;33030;-73
2021/10/15 11:12:48;;;;;;;35.83;33.60;;;;;;;15.15;100.00;102147.71;1941125;74;33058;-73
2021/10/15 11:18:20;;;;;;;36.47;34.10;;;;;;;15.22;100.00;102156.11;1941325;74;32980;-71
2021/10/15 11:23:44;;;;;;;36.53;33.77;;;;;;;15.24;100.00;102160.85;1941495;74;31620;-70
2021/10/15 11:29:09;;;;;;;35.93;33.67;;;;;;;15.33;100.00;102177.90;1941361;74;31096;-71
2021/10/15 11:34:34;;;;;;;37.23;34.83;;;;;;;15.14;100.00;102171.25;1941377;74;32959;-71
2021/10/15 11:40:18;;;;;;;36.33;33.93;;;;;;;15.11;100.00;102168.44;1941213;74;32968;-70
2021/10/15 11:45:45;;;;;;;35.83;33.57;;;;;;;14.90;100.00;102185.83;1941193;74;31093;-68
2021/10/15 11:51:13;;;;;;;38.70;36.33;;;;;;;14.87;100.00;102178.57;1941326;74;33488;-68
2021/10/15 11:56:39;;;;;;;40.57;38.07;;;;;;;14.86;100.00;102174.93;1941104;74;33094;-69
2021/10/15 12:02:04;;;;;;;38.33;35.83;;;;;;;14.88;100.00;102172.70;1941386;74;33554;-70
2021/10/15 12:07:28;;;;;;;40.93;38.10;;;;;;;14.83;100.00;102178.30;1941296;74;33555;-73
2021/10/15 12:12:53;;;;;;;39.83;37.17;;;;;;;14.94;100.00;102172.95;1941210;74;31089;-72
2021/10/15 12:18:19;;;;;;;40.00;37.40;;;;;;;14.92;100.00;102175.22;1941315;74;33599;-72
2021/10/15 12:23:55;;;;;;;38.07;35.87;;;;;;;14.95;100.00;102176.59;2062680;69;32838;-70
2021/10/15 12:29:31;;;;;;;38.13;35.80;;;;;;;15.10;100.00;102170.14;1941180;74;33077;-73
2021/10/15 12:35:20;;;;;;;34.60;32.53;;;;;;;15.47;100.00;102166.38;1941334;74;32963;-71
2021/10/15 12:40:57;;;;;;;33.93;32.07;;;;;;;15.36;100.00;102164.16;1941145;74;33027;-71
2021/10/15 12:46:23;;;;;;;34.60;32.60;;;;;;;15.27;100.00;102163.66;1941141;74;32945;-69
2021/10/15 12:52:00;;;;;;;33.47;31.47;;;;;;;15.33;100.00;102161.94;1941192;74;31199;-71
2021/10/15 12:57:38;;;;;;;33.07;31.07;;;;;;;15.26;100.00;102164.77;1941319;74;33539;-69
2021/10/15 13:03:08;;;;;;;33.10;31.30;;;;;;;15.31;100.00;102164.77;1941128;74;33102;-69
2021/10/15 13:08:32;;;;;;;34.83;32.97;;;;;;;15.37;100.00;102163.05;1941045;74;33088;-70
2021/10/15 13:13:58;;;;;;;31.97;30.03;;;;;;;15.49;100.00;102155.16;1941070;74;32961;-70
2021/10/15 13:19:23;;;;;;;32.07;30.27;;;;;;;15.70;100.00;102152.31;1941296;74;33589;-69
2021/10/15 13:24:48;;;;;;;29.70;28.00;;;;;;;15.51;100.00;102157.71;1941345;74;33144;-67
2021/10/15 13:30:14;;;;;;;31.17;29.47;;;;;;;15.29;100.00;102158.59;1941049;74;33074;-69
2021/10/15 13:35:45;;;;;;;28.70;27.20;;;;;;;15.38;100.00;102152.13;1941664;74;33085;-71
2021/10/15 13:41:13;;;;;;;30.77;29.17;;;;;;;15.57;100.00;102151.53;1941133;74;33091;-70
2021/10/15 13:46:39;;;;;;;31.63;29.77;;;;;;;15.51;100.00;102147.06;1941078;74;32960;-71
2021/10/15 13:52:03;;;;;;;34.30;32.23;;;;;;;15.48;100.00;102152.66;1941223;74;33068;-70
2021/10/15 13:57:28;;;;;;;32.50;30.50;;;;;;;15.25;100.00;102156.94;1941351;74;33079;-69
2021/10/15 14:05:39;;;;;;;35.13;33.03;;;;;;;15.14;100.00;102155.30;2061291;69;32624;-69
2021/10/15 14:08:09;;;;;;;34.73;32.63;;;;;;;15.02;100.00;102159.78;1950724;73;26629;-69
2021/10/15 14:10:42;;;;;;;34.83;32.93;;;;;;;14.97;100.00;102167.38;2030869;71;26172;-69
2021/10/15 14:13:13;;;;;;;33.97;31.87;;;;;;;15.04;100.00;102156.72;2030793;71;26243;-72
2021/10/15 14:15:43;;;;;;;33.80;31.80;;;;;;;14.91;100.00;102156.74;2030715;71;26232;-71
2021/10/15 14:18:16;;;;;;;32.83;31.03;;;;;;;14.97;100.00;102158.98;2030723;70;26171;-71
2021/10/15 14:20:46;;;;;;;32.60;30.83;;;;;;;15.13;100.00;102156.97;2030826;71;26223;-69
2021/10/15 14:26:11;;;;;;;30.47;28.77;;;;;;;15.24;100.00;102149.66;1941115;74;33152;-70
2021/10/15 14:31:36;;;;;;;31.00;29.03;;;;;;;15.28;100.00;102154.11;1941157;74;32965;-71
2021/10/15 14:37:01;;;;;;;30.13;28.53;;;;;;;15.34;100.00;102147.39;1941169;74;33089;-71
2021/10/15 14:42:25;;;;;;;30.30;28.63;;;;;;;15.27;100.00;102155.26;1941301;74;33618;-70
2021/10/15 14:47:50;;;;;;;31.23;29.17;;;;;;;15.24;100.00;102151.05;1941356;74;33529;-70
2021/10/15 14:53:14;;;;;;;29.37;27.87;;;;;;;15.20;100.00;102150.50;1941169;74;33038;-71
2021/10/15 14:58:41;;;;;;;30.43;28.53;;;;;;;15.36;100.00;102143.75;1941175;74;33072;-71
2021/10/15 15:04:07;;;;;;;31.90;29.93;;;;;;;15.35;100.00;102149.91;1940992;74;32977;-70
2021/10/15 15:09:32;;;;;;;31.77;29.67;;;;;;;15.28;100.00;102147.95;1941143;74;33230;-69
2021/10/15 15:14:57;;;;;;;29.70;28.03;;;;;;;15.19;100.00;102151.66;1941048;74;33096;-71
2021/10/15 15:20:21;;;;;;;33.77;31.57;;;;;;;15.04;100.00;102144.96;1941113;74;33002;-72
2021/10/15 15:25:47;;;;;;;31.60;29.90;;;;;;;14.95;100.00;102147.22;1941311;74;33525;-69
2021/10/15 15:31:13;;;;;;;31.47;29.67;;;;;;;14.97;100.00;102146.39;1941259;74;33054;-70
2021/10/15 15:36:39;;;;;;;31.27;29.57;;;;;;;15.08;100.00;102145.78;1941365;74;33564;-67
2021/10/15 15:42:07;;;;;;;31.53;29.80;;;;;;;14.98;100.00;102150.84;1941130;74;33020;-73
2021/10/15 15:47:37;;;;;;;33.37;31.53;;;;;;;14.96;100.00;102149.74;1941170;74;33026;-72
2021/10/15 15:53:02;;;;;;;31.77;29.87;;;;;;;15.01;100.00;102146.09;1941090;74;32954;-71
2021/10/15 15:58:28;;;;;;;30.17;28.47;;;;;;;14.94;100.00;102146.38;1941213;74;32998;-70
2021/10/15 16:03:54;;;;;;;32.97;31.20;;;;;;;14.89;100.00;102141.38;1941046;74;33036;-71
2021/10/15 16:09:23;;;;;;;33.10;31.10;;;;;;;14.91;100.00;102144.70;1941010;74;32980;-70
2021/10/15 16:14:48;;;;;;;32.93;31.13;;;;;;;14.75;100.00;102152.85;1941285;74;33633;-69
2021/10/15 16:20:13;;;;;;;34.70;32.50;;;;;;;14.74;100.00;102152.56;1941315;74;33522;-68
2021/10/15 16:25:38;;;;;;;36.07;34.00;;;;;;;14.67;100.00;102147.83;1941005;74;33052;-72
2021/10/15 16:31:03;;;;;;;33.43;31.47;;;;;;;14.59;100.00;102150.61;1941265;74;33528;-71
2021/10/15 16:36:29;;;;;;;115.00;65.63;;;;;;;14.64;100.00;102156.20;1941184;74;33445;-72
2021/10/15 16:41:56;;;;;;;36.53;34.53;;;;;;;14.43;100.00;102166.56;1941099;74;32949;-71
2021/10/15 16:47:21;;;;;;;40.33;36.73;;;;;;;14.23;100.00;102169.31;1941273;74;33018;-69
2021/10/15 16:52:45;;;;;;;56.03;50.60;;;;;;;14.26;100.00;102174.89;1941180;74;32996;-70
2021/10/15 16:58:10;;;;;;;39.63;37.27;;;;;;;14.03;100.00;102172.09;1940970;74;33006;-73
2021/10/15 17:03:35;;;;;;;37.70;35.30;;;;;;;13.85;100.00;102179.02;1941020;74;33069;-69
2021/10/15 17:09:02;;;;;;;37.33;34.97;;;;;;;13.92;100.00;102182.94;1941206;74;33609;-71
2021/10/15 17:14:29;;;;;;;35.80;33.40;;;;;;;13.91;100.00;102182.64;1941206;74;32998;-79
2021/10/15 17:19:54;;;;;;;36.50;34.30;;;;;;;13.79;100.00;102187.09;1941110;74;33012;-70
2021/10/15 17:25:19;;;;;;;36.07;33.77;;;;;;;13.76;100.00;102192.39;1941372;74;32965;-70
2021/10/15 17:30:44;;;;;;;35.20;33.30;;;;;;;13.90;100.00;102201.94;1941071;74;32959;-71
2021/10/15 17:36:09;;;;;;;37.80;35.60;;;;;;;13.77;100.00;102202.45;1941300;74;33505;-69
2021/10/15 17:41:36;;;;;;;36.63;34.43;;;;;;;13.75;100.00;102206.06;1941048;74;32956;-70
2021/10/15 17:47:02;;;;;;;40.17;37.90;;;;;;;13.62;100.00;102209.64;1941081;74;33102;-68
2021/10/15 17:52:27;;;;;;;39.03;36.63;;;;;;;13.66;100.00;102220.55;1941090;74;32983;-71
2021/10/15 17:57:52;;;;;;;37.50;35.13;;;;;;;13.55;100.00;102213.25;1941264;74;33546;-70
2021/10/15 18:03:17;;;;;;;36.50;34.10;;;;;;;13.50;100.00;102223.55;1941038;74;33169;-70
2021/10/15 18:08:42;;;;;;;35.13;33.13;;;;;;;13.45;100.00;102222.12;1941331;74;33558;-71
2021/10/15 18:14:06;;;;;;;35.47;33.27;;;;;;;13.52;100.00;102217.96;1941047;74;32964;-70
2021/10/15 18:19:32;;;;;;;35.97;33.50;;;;;;;13.53;100.00;102226.63;1941276;74;32964;-72
2021/10/15 18:24:56;;;;;;;38.03;35.77;;;;;;;13.52;100.00;102227.73;1941257;74;33554;-70
2021/10/15 18:30:25;;;;;;;37.20;34.90;;;;;;;13.64;100.00;102237.31;2023083;71;33294;-72
2021/10/15 18:35:57;;;;;;;36.60;34.47;;;;;;;13.66;100.00;102238.70;1941651;74;32971;-70
2021/10/15 18:41:22;;;;;;;34.37;32.30;;;;;;;13.58;100.00;102242.02;1941013;74;33022;-72
2021/10/15 18:46:48;;;;;;;34.63;32.33;;;;;;;13.72;100.00;102244.31;1941317;74;33025;-70
2021/10/15 18:52:21;;;;;;;33.70;31.80;;;;;;;13.62;100.00;102246.50;1941382;74;32961;-73
2021/10/15 18:57:53;;;;;;;36.90;34.50;;;;;;;13.62;100.00;102246.50;1941077;74;33053;-72
2021/10/15 19:03:18;;;;;;;35.13;32.83;;;;;;;13.55;100.00;102250.10;1941054;74;33081;-71
2021/10/15 19:08:42;;;;;;;36.97;34.77;;;;;;;13.61;100.00;102242.86;1941018;74;33014;-73
2021/10/15 19:14:08;;;;;;;36.40;34.30;;;;;;;13.52;100.00;102242.28;1941287;74;33609;-67
2021/10/15 19:19:38;;;;;;;36.97;34.67;;;;;;;13.65;100.00;102238.96;1941176;74;32957;-73
2021/10/15 19:25:05;;;;;;;37.30;34.90;;;;;;;13.45;100.00;102241.11;1941147;74;32966;-69
2021/10/15 19:30:32;;;;;;;35.97;33.87;;;;;;;13.48;100.00;102239.71;1941155;74;32967;-70
2021/10/15 19:35:56;;;;;;;34.70;32.50;;;;;;;13.66;100.00;102228.93;1941325;74;33521;-68
2021/10/15 19:41:23;;;;;;;34.03;31.97;;;;;;;13.64;100.00;102228.38;1941252;74;33454;-67
2021/10/15 19:46:48;;;;;;;31.37;29.37;;;;;;;13.44;100.00;102228.25;1941027;74;33043;-68
2021/10/15 19:52:13;;;;;;;30.87;28.97;;;;;;;13.45;100.00;102230.49;1941068;74;33010;-70
2021/10/15 19:57:38;;;;;;;32.13;30.20;;;;;;;13.45;100.00;102222.96;1941241;74;33546;-70
2021/10/15 20:03:06;;;;;;;31.90;29.80;;;;;;;13.48;100.00;102221.02;1941320;74;33459;-70
2021/10/15 20:08:31;;;;;;;31.17;29.17;;;;;;;13.36;100.00;102221.80;1941041;74;33105;-70
2021/10/15 20:13:56;;;;;;;35.13;32.93;;;;;;;13.46;100.00;102223.26;1941032;74;32940;-70
2021/10/15 20:19:21;;;;;;;35.17;33.00;;;;;;;13.07;100.00;102226.89;1941060;74;33040;-71
2021/10/15 20:24:45;;;;;;;34.90;32.70;;;;;;;12.78;100.00;102232.53;1941275;74;33638;-66
2021/10/15 20:30:16;;;;;;;36.90;34.40;;;;;;;12.79;100.00;102242.00;1941267;74;32956;-69
2021/10/15 20:35:42;;;;;;;39.00;36.43;;;;;;;12.37;100.00;102248.02;1941097;74;33013;-69
2021/10/15 20:41:10;;;;;;;41.53;38.70;;;;;;;12.16;100.00;102247.52;1941137;74;33011;-69
2021/10/15 20:46:36;;;;;;;41.87;39.07;;;;;;;12.01;100.00;102255.72;1941292;74;33490;-69
2021/10/15 20:52:01;;;;;;;41.83;39.00;;;;;;;11.64;100.00;102262.44;1941019;74;32983;-70
2021/10/15 20:57:26;;;;;;;42.17;39.43;;;;;;;11.39;100.00;102268.50;1941061;74;33049;-70
2021/10/15 21:02:51;;;;;;;43.97;41.13;;;;;;;11.28;100.00;102268.06;1941031;74;32977;-67
2021/10/15 21:08:15;;;;;;;42.80;39.77;;;;;;;11.17;100.00;102268.98;1941073;74;33054;-71
2021/10/15 21:13:40;;;;;;;46.80;43.90;;;;;;;11.00;100.00;102275.11;1941325;74;33615;-69
2021/10/15 21:19:07;;;;;;;47.17;43.93;;;;;;;11.01;100.00;102283.21;1941047;74;33047;-71
2021/10/15 21:24:38;;;;;;;47.80;44.70;;;;;;;11.08;100.00;102278.89;1941116;74;32980;-72
2021/10/15 21:30:04;;;;;;;49.33;46.13;;;;;;;11.03;100.00;102289.38;1941062;74;32974;-70
2021/10/15 21:35:30;;;;;;;50.80;47.77;;;;;;;11.00;100.00;102295.97;1941167;74;33040;-69
2021/10/15 21:40:54;;;;;;;51.30;48.10;;;;;;;10.69;100.00;102296.86;1941272;74;33027;-71
2021/10/15 21:46:19;;;;;;;51.00;47.70;;;;;;;10.62;100.00;102305.88;1941065;74;32994;-69
2021/10/15 21:51:43;;;;;;;52.07;48.63;;;;;;;10.53;100.00;102305.98;1941145;74;32965;-71
2021/10/15 21:57:07;;;;;;;50.57;47.37;;;;;;;10.50;100.00;102309.27;1941354;74;33576;-72
2021/10/15 22:02:32;;;;;;;51.63;48.23;;;;;;;10.45;100.00;102319.74;1941405;74;33053;-72
2021/10/15 22:07:58;;;;;;;51.80;48.40;;;;;;;10.45;100.00;102319.74;1941051;74;32984;-68
2021/10/15 22:13:23;;;;;;;51.77;48.33;;;;;;;10.50;100.00;102324.55;1941084;74;32991;-70
2021/10/15 22:18:47;;;;;;;54.73;51.13;;;;;;;10.44;100.00;102318.05;1941080;74;32972;-69
2021/10/15 22:24:13;;;;;;;55.90;51.97;;;;;;;10.46;100.00;102320.59;1941295;74;33469;-67
2021/10/15 22:29:37;;;;;;;53.23;49.70;;;;;;;10.50;100.00;102321.23;1941277;74;32967;-70
2021/10/15 22:35:02;;;;;;;52.93;49.23;;;;;;;10.27;100.00;102326.06;1941256;74;33027;-68
2021/10/15 22:40:28;;;;;;;54.33;50.83;;;;;;;10.37;100.00;102331.80;1941240;74;32979;-67
2021/10/15 22:45:53;;;;;;;49.20;45.63;;;;;;;10.03;100.00;102334.42;1941349;74;33541;-67
2021/10/15 22:51:20;;;;;;;48.27;44.90;;;;;;;10.06;100.00;102331.14;1941091;74;33057;-69
2021/10/15 22:56:46;;;;;;;51.73;48.33;;;;;;;10.14;100.00;102320.19;1941291;74;33484;-72
2021/10/15 23:02:12;;;;;;;53.53;49.87;;;;;;;10.02;100.00;102320.23;1941066;74;33049;-70
2021/10/15 23:07:38;;;;;;;51.60;47.97;;;;;;;10.14;100.00;102308.27;1941276;74;33436;-68
2021/10/15 23:13:04;;;;;;;49.93;46.63;;;;;;;10.04;100.00;102309.74;1941190;74;32967;-72
2021/10/15 23:18:30;;;;;;;47.63;44.43;;;;;;;9.72;100.00;102311.25;1941093;74;32982;-72
2021/10/15 23:23:54;;;;;;;51.03;47.73;;;;;;;10.01;100.00;102316.34;1941084;74;32979;-69
2021/10/15 23:29:18;;;;;;;52.90;49.30;;;;;;;9.73;100.00;102319.03;1941055;74;33091;-71
2021/10/15 23:34:44;;;;;;;52.67;49.07;;;;;;;9.76;100.00;102320.77;1941272;74;33463;-71
2021/10/15 23:40:13;;;;;;;52.00;48.47;;;;;;;9.71;100.00;102323.47;1941288;74;33546;-67
2021/10/15 23:45:38;;;;;;;51.17;47.90;;;;;;;9.43;100.00;102323.34;1941089;74;33064;-72
2021/10/15 23:51:03;;;;;;;51.53;48.53;;;;;;;9.13;100.00;102318.77;1941295;74;33497;-68
2021/10/15 23:56:27;;;;;;;51.40;48.27;;;;;;;9.08;100.00;102317.25;1941059;74;33076;-71
2021/10/15 23:58:58;;;;;;;47.87;44.97;;;;;;;9.21;100.00;102331.95;1904991;75;26269;-72
